Terminal Aerodrome Forecast
Issued by NWS

Home | Current Version | Previous Version | Text Only | Print | Product List | Glossary On
Versions: 1 2 3 4 5 6 7 8 9 10 11 12 13 14 15 16 17 18 19 20 21 22 23 24
000
FTUS45 KBOI 260520
TAFBKE
TAF
KBKE 260520Z 2606/2706 VRB05KT P6SM SCT200
     FM262000 VRB06KT P6SM BKN120
     FM270000 33010KT P6SM SCT070 BKN100 PROB30 2702/2706 22020G35KT
      P6SM -TSRA BKN070CB=

USA.gov is the U.S. government's official web portal to all federal, state and local government web resources and services.